Airfield :
LOGIN :

Register | Disclaimer

   EN    FR    IT 

 










Legend :    VFR   Marginal VFR   IFR   Intensive IFR   Very Intensive IFR
Visi :
Ceiling :
>= 8 km
>= 3000ft
5 to 8 km
1000 to 3000 ft
1500m to 5 km
500 to 1000 ft
800 to 1500m
200 to 500 ft
< 800m
< 200 ft
Symbols :   Thunderstorms  Fog  Heavy snow  Heavy precipitations  Wind > 20 kt
SIGMETs :     Misc.  Thunderstorms  Icing  Turbulence  Mountain Waves  Volcanic Ashes






- Airport Elevation : 610 ft
- IATA code : VXO


ESMX - Växjö Kronoberg

CURRENT METAR :
  • 301950Z AUTO 00000KT 9999 BKN082/// M00/M10 Q1028

EXPIRED METARs :
  • 301920Z AUTO 02003KT 9999 OVC084/// M00/M10 Q1027
  • 301850Z AUTO 35009KT 9999 FEW064/// SCT084/// M00/M10 Q1027
  • 301820Z AUTO 01008KT 310V070 9999 FEW070/// BKN088/// 01/M11 Q1027
  • 301750Z AUTO 02009KT 9999 FEW086/// 01/M12 Q1026
  • 301720Z AUTO 02008KT 340V080 9999 SCT062/// 01/M12 Q1026
  • 301650Z AUTO 02010KT 9999 FEW084/// 02/M12 Q1025

Expired Forecast.



MET'MAP, your aeronautical weather chart ! - Copyright ORBIFLY December 2007 - Disclaimer

ORBIFLY MET'MAP TEAM :

Programming & Development : Alexandra Zaïnal
Concept & original design : Baudouin d'Aumeries
Assistance for programming : Marc-Olivier Méhu
Technical & hardware support : Manuel Goepfert

Contact : metmap@orbifly.com




SOURCES & CREDITS :

   NOAA